Terminal Aerodrome Forecast
Issued by NWS

Home | Current Version | Previous Version | Text Only | Print | Product List | Glossary On
Versions: 1 2 3 4 5 6 7 8 9 10 11 12 13 14 15
000
FTUS45 KSLC 202002 AAA
TAF36U
TAF AMD
K36U 202002Z 2020/2118 30007KT P6SM SCT080 BKN180
      TEMPO 2021/2024 29010G18KT P6SM BKN080 BKN110
     FM210300 VRB04KT P6SM SKC=

USA.gov is the U.S. government's official web portal to all federal, state and local government web resources and services.